Time;durP1;ratioP1;P1;durP2;ratioP2;P2;SDS_P1;SDS_P2;PMS_P1;PMS_P2;Temp;Humidity;BMP_temperature;BMP_pressure;BME280_temperature;BME280_humidity;BME280_pressure;Samples;Min_cycle;Max_cycle;Signal;HPM_P1;HPM_P2
2022/09/19 00:00:34;;;;;;;17.02;2.80;;;12.90;99.90;;;;;;5076087;28;20443;-65
2022/09/19 00:03:00;;;;;;;15.52;3.00;;;12.90;99.90;;;;;;5058852;28;20055;-65
2022/09/19 00:05:26;;;;;;;18.00;3.35;;;12.90;99.90;;;;;;5075850;28;20041;-65
2022/09/19 00:07:51;;;;;;;14.52;3.30;;;12.90;99.90;;;;;;5076338;28;20041;-66
2022/09/19 00:10:17;;;;;;;19.98;3.47;;;13.00;99.90;;;;;;5058272;28;20127;-66
2022/09/19 00:12:42;;;;;;;15.27;3.17;;;13.00;99.90;;;;;;5075820;28;20087;-67
2022/09/19 00:15:08;;;;;;;18.67;3.35;;;13.00;99.90;;;;;;5075994;28;20048;-65
2022/09/19 00:17:34;;;;;;;21.45;4.88;;;12.90;99.90;;;;;;5058100;28;20040;-65
2022/09/19 00:19:59;;;;;;;22.88;4.05;;;12.90;99.90;;;;;;5075296;28;20048;-66
2022/09/19 00:22:25;;;;;;;22.65;3.60;;;12.80;99.90;;;;;;5075883;28;20375;-65
2022/09/19 00:24:51;;;;;;;19.40;3.15;;;12.70;99.90;;;;;;5075653;28;20044;-66
2022/09/19 00:27:25;;;;;;;17.85;3.65;;;12.80;99.90;;;;;;5076102;28;20123;-65
2022/09/19 00:29:52;;;;;;;13.43;3.50;;;12.70;99.90;;;;;;5075405;28;20056;-65
2022/09/19 00:32:19;;;;;;;16.73;3.65;;;12.80;99.90;;;;;;5075313;28;20045;-67
2022/09/19 00:34:48;;;;;;;21.05;4.07;;;12.70;99.90;;;;;;5057719;28;20137;-65
2022/09/19 00:37:15;;;;;;;12.88;3.38;;;12.50;99.90;;;;;;5076097;28;20037;-65
2022/09/19 00:39:41;;;;;;;19.42;3.83;;;12.60;99.90;;;;;;5076196;28;20040;-66
2022/09/19 00:42:22;;;;;;;14.43;3.03;;;12.50;99.90;;;;;;5075917;28;20119;-65
2022/09/19 00:44:58;;;;;;;12.52;2.53;;;12.50;99.90;;;;;;5058456;28;20079;-66
2022/09/19 00:47:29;;;;;;;16.45;3.13;;;12.40;99.90;;;;;;5075883;28;20044;-65
2022/09/19 00:49:58;;;;;;;15.20;3.20;;;12.50;99.90;;;;;;5075680;28;20336;-65
2022/09/19 00:52:54;;;;;;;12.68;2.75;;;12.50;99.90;;;;;;5075579;28;20390;-65
2022/09/19 00:55:20;;;;;;;12.95;3.70;;;12.50;99.90;;;;;;5058202;28;20109;-65
2022/09/19 00:57:59;;;;;;;17.13;3.00;;;12.60;99.90;;;;;;5075746;28;20383;-66
2022/09/19 01:00:25;;;;;;;24.50;4.38;;;12.60;99.90;;;;;;5075772;28;20052;-67
2022/09/19 01:02:51;;;;;;;18.52;3.55;;;12.70;99.90;;;;;;5054113;28;20048;-67
2022/09/19 01:05:19;;;;;;;19.80;3.85;;;12.70;99.90;;;;;;5053378;28;20048;-66
2022/09/19 01:08:00;;;;;;;26.83;4.65;;;12.60;99.90;;;;;;5075292;28;20516;-66
2022/09/19 01:10:56;;;;;;;16.92;3.85;;;12.70;99.90;;;;;;5075445;28;20040;-66
2022/09/19 01:13:35;;;;;;;18.38;4.00;;;12.80;99.90;;;;;;5057333;28;20367;-66
2022/09/19 01:16:24;;;;;;;23.13;3.80;;;12.70;99.90;;;;;;5057563;28;20123;-65
2022/09/19 01:19:02;;;;;;;16.88;3.67;;;12.80;99.90;;;;;;5075380;28;20062;-65
2022/09/19 01:21:47;;;;;;;23.67;3.78;;;12.80;99.90;;;;;;5057866;28;20079;-66
2022/09/19 01:24:37;;;;;;;16.98;3.33;;;12.90;99.90;;;;;;5075190;28;20063;-66
2022/09/19 01:27:30;;;;;;;16.08;3.50;;;13.00;99.90;;;;;;5057616;28;20109;-65
2022/09/19 01:30:03;;;;;;;18.20;4.00;;;13.00;99.90;;;;;;5074601;28;20386;-66
2022/09/19 01:32:37;;;;;;;18.57;3.50;;;13.10;99.90;;;;;;5074829;28;20078;-67
2022/09/19 01:35:07;;;;;;;17.75;3.58;;;13.10;99.90;;;;;;5074962;28;20052;-64
2022/09/19 01:37:45;;;;;;;24.65;3.47;;;13.20;99.90;;;;;;5075109;28;20044;-65
2022/09/19 01:40:13;;;;;;;24.55;3.97;;;13.20;99.90;;;;;;5075150;28;20369;-67
2022/09/19 01:42:55;;;;;;;17.45;4.18;;;13.10;99.90;;;;;;5056991;28;20048;-67
2022/09/19 01:45:36;;;;;;;18.73;3.38;;;13.10;99.90;;;;;;5057312;28;20370;-65
2022/09/19 01:48:18;;;;;;;21.20;3.67;;;13.10;99.90;;;;;;5075142;28;20063;-66
2022/09/19 01:51:10;;;;;;;16.58;3.65;;;13.10;99.90;;;;;;5075102;28;20036;-66
2022/09/19 01:54:08;;;;;;;21.00;4.13;;;13.00;99.90;;;;;;5074731;28;20052;-66
2022/09/19 01:57:04;;;;;;;21.92;4.47;;;13.00;99.90;;;;;;5073985;28;20436;-65
2022/09/19 02:00:02;;;;;;;13.15;3.42;;;13.00;99.90;;;;;;5074299;28;20107;-65
2022/09/19 02:02:47;;;;;;;13.25;3.78;;;13.00;99.90;;;;;;5074546;28;20485;-66
2022/09/19 02:05:27;;;;;;;11.80;2.47;;;13.00;99.90;;;;;;5074781;28;20054;-66
2022/09/19 02:08:07;;;;;;;17.63;3.15;;;13.10;99.90;;;;;;5074290;28;20114;-65
2022/09/19 02:10:56;;;;;;;13.30;3.20;;;13.10;99.90;;;;;;5074721;28;20063;-67
2022/09/19 02:13:29;;;;;;;14.90;3.03;;;13.20;99.90;;;;;;5037191;28;20451;-65
2022/09/19 02:16:04;;;;;;;21.98;3.65;;;13.10;99.90;;;;;;5037019;28;20045;-67
2022/09/19 02:18:49;;;;;;;13.57;3.40;;;13.20;99.90;;;;;;5037527;28;20045;-65
2022/09/19 02:21:21;;;;;;;13.55;2.63;;;13.10;99.90;;;;;;5053919;28;20053;-67
2022/09/19 02:23:52;;;;;;;13.23;3.30;;;13.10;99.90;;;;;;5054769;28;20045;-67
2022/09/19 02:26:20;;;;;;;12.15;2.35;;;13.20;99.90;;;;;;5042041;28;20130;-66
2022/09/19 02:28:52;;;;;;;14.68;3.15;;;13.10;99.90;;;;;;5074119;28;20052;-66
2022/09/19 02:31:20;;;;;;;19.58;3.63;;;13.20;99.90;;;;;;5074296;28;20049;-66
2022/09/19 02:33:47;;;;;;;19.55;3.05;;;13.20;99.90;;;;;;5056778;28;20050;-65
2022/09/19 02:36:18;;;;;;;15.38;3.15;;;13.20;99.90;;;;;;5074498;28;20052;-65
2022/09/19 02:39:05;;;;;;;15.32;3.22;;;13.10;99.90;;;;;;5056867;28;20056;-66
2022/09/19 02:41:42;;;;;;;17.45;4.00;;;13.20;99.90;;;;;;5056650;28;20119;-67
2022/09/19 02:44:19;;;;;;;16.33;3.83;;;13.30;99.90;;;;;;5078176;28;20047;-65
2022/09/19 02:46:50;;;;;;;15.20;3.35;;;13.30;99.90;;;;;;5078253;28;20059;-67
2022/09/19 02:49:29;;;;;;;18.30;3.40;;;13.30;99.90;;;;;;5078037;28;20040;-64
2022/09/19 02:52:01;;;;;;;13.13;2.90;;;13.20;99.90;;;;;;5077731;28;20076;-65
2022/09/19 02:54:30;;;;;;;15.60;3.88;;;13.20;99.90;;;;;;5077991;28;20098;-65
2022/09/19 02:57:01;;;;;;;13.27;3.20;;;13.20;99.90;;;;;;5077608;28;20032;-65
2022/09/19 02:59:33;;;;;;;13.57;2.95;;;13.20;99.90;;;;;;5078186;28;20106;-65
2022/09/19 03:02:05;;;;;;;13.45;2.85;;;13.20;99.90;;;;;;5077838;28;20098;-65
2022/09/19 03:04:40;;;;;;;10.57;2.33;;;13.10;99.90;;;;;;5077975;28;20344;-66
2022/09/19 03:07:38;;;;;;;15.32;2.38;;;13.00;99.90;;;;;;5077788;28;20097;-65
2022/09/19 03:10:21;;;;;;;11.88;2.83;;;13.00;99.90;;;;;;5055560;28;20052;-67
2022/09/19 03:12:54;;;;;;;8.18;2.03;;;13.10;99.90;;;;;;5077344;28;20465;-65
2022/09/19 03:15:32;;;;;;;8.18;2.13;;;13.00;99.90;;;;;;5077529;28;20044;-67
2022/09/19 03:18:00;;;;;;;10.77;2.30;;;13.00;99.90;;;;;;5077246;28;20044;-65
2022/09/19 03:20:25;;;;;;;10.65;2.78;;;13.00;99.90;;;;;;5077584;28;20062;-65
2022/09/19 03:22:53;;;;;;;14.30;3.33;;;13.00;99.90;;;;;;5077471;28;20474;-67
2022/09/19 03:25:19;;;;;;;10.95;2.50;;;12.90;99.90;;;;;;5077284;28;20124;-65
2022/09/19 03:27:44;;;;;;;16.30;3.65;;;13.00;99.90;;;;;;5077568;28;20072;-67
2022/09/19 03:30:12;;;;;;;16.75;3.47;;;13.00;99.90;;;;;;5076861;28;20053;-66
2022/09/19 03:32:39;;;;;;;19.02;3.13;;;13.00;99.90;;;;;;5077460;28;20366;-66
2022/09/19 03:35:06;;;;;;;14.23;3.38;;;13.00;99.90;;;;;;5077411;28;20347;-65
2022/09/19 03:37:32;;;;;;;12.05;3.05;;;12.90;99.90;;;;;;5077335;28;20056;-65
2022/09/19 03:39:58;;;;;;;13.15;2.85;;;12.80;99.90;;;;;;5055823;28;20049;-65
2022/09/19 03:42:25;;;;;;;13.93;2.90;;;12.60;99.90;;;;;;5057215;28;20462;-65
2022/09/19 03:44:52;;;;;;;12.73;3.28;;;12.70;99.90;;;;;;5057208;28;20044;-65
2022/09/19 03:47:18;;;;;;;13.02;2.97;;;12.60;99.90;;;;;;5057105;28;20052;-65
2022/09/19 03:49:44;;;;;;;23.50;3.28;;;12.50;99.90;;;;;;5057045;28;20049;-65
2022/09/19 03:52:10;;;;;;;14.65;2.78;;;12.50;99.90;;;;;;5056582;28;20044;-65
2022/09/19 03:54:35;;;;;;;10.80;2.38;;;12.40;99.90;;;;;;5060963;28;20051;-65
2022/09/19 03:57:01;;;;;;;19.10;4.13;;;12.50;99.90;;;;;;5059334;28;20045;-65
2022/09/19 03:59:27;;;;;;;19.63;3.20;;;12.40;99.90;;;;;;5077116;28;20049;-64
2022/09/19 04:01:54;;;;;;;15.93;2.63;;;12.40;99.90;;;;;;5076934;28;20117;-65
2022/09/19 04:04:21;;;;;;;9.90;2.42;;;12.40;99.90;;;;;;5076658;28;20075;-64
2022/09/19 04:06:47;;;;;;;16.85;2.90;;;12.40;99.90;;;;;;5076791;28;20040;-65
2022/09/19 04:09:12;;;;;;;9.30;2.65;;;12.50;99.90;;;;;;5076031;28;20048;-65
2022/09/19 04:11:41;;;;;;;15.02;3.47;;;12.50;99.90;;;;;;5076738;28;20477;-65
2022/09/19 04:14:08;;;;;;;8.63;2.58;;;12.60;99.90;;;;;;5076454;28;20079;-64
2022/09/19 04:16:34;;;;;;;12.10;2.70;;;12.60;99.90;;;;;;5076678;28;20064;-65
2022/09/19 04:19:00;;;;;;;14.43;2.83;;;12.60;99.90;;;;;;5076447;28;20044;-65
2022/09/19 04:21:26;;;;;;;14.82;2.05;;;12.60;99.90;;;;;;5058660;28;20100;-65
2022/09/19 04:23:54;;;;;;;11.95;3.03;;;12.60;99.90;;;;;;5058802;28;20052;-68
2022/09/19 04:26:21;;;;;;;13.88;2.42;;;12.70;99.90;;;;;;5076100;28;20455;-66
2022/09/19 04:28:47;;;;;;;15.98;2.65;;;12.70;99.90;;;;;;5076283;28;20061;-66
2022/09/19 04:31:13;;;;;;;14.00;2.85;;;12.60;99.90;;;;;;5076310;28;20378;-66
2022/09/19 04:33:39;;;;;;;11.82;2.58;;;12.60;99.90;;;;;;5058361;28;20116;-66
2022/09/19 04:36:06;;;;;;;11.65;3.00;;;12.60;99.90;;;;;;5075987;28;20044;-67
2022/09/19 04:38:33;;;;;;;18.17;3.42;;;12.60;99.90;;;;;;5075267;28;20363;-66
2022/09/19 04:40:59;;;;;;;18.50;3.60;;;12.60;99.90;;;;;;5057530;28;20045;-66
2022/09/19 04:43:26;;;;;;;23.27;3.05;;;12.60;99.90;;;;;;5075962;28;20127;-66
2022/09/19 04:45:54;;;;;;;18.58;3.58;;;12.60;99.90;;;;;;5075920;28;20052;-64
2022/09/19 04:48:21;;;;;;;15.45;2.83;;;12.60;99.90;;;;;;5075811;28;20078;-65
2022/09/19 04:50:50;;;;;;;19.50;3.60;;;12.60;99.90;;;;;;5075738;28;20044;-66
2022/09/19 04:53:22;;;;;;;20.23;4.07;;;12.60;99.90;;;;;;5075163;28;20518;-64
2022/09/19 04:55:50;;;;;;;11.95;2.88;;;12.60;99.90;;;;;;5075991;28;20426;-65
2022/09/19 04:58:15;;;;;;;14.63;3.47;;;12.60;99.90;;;;;;5075764;28;20086;-67
2022/09/19 05:00:45;;;;;;;14.02;2.10;;;12.50;99.90;;;;;;5075403;28;20453;-67
2022/09/19 05:03:16;;;;;;;12.85;2.75;;;12.60;99.90;;;;;;5075712;28;20057;-67
2022/09/19 05:05:44;;;;;;;11.30;2.25;;;12.50;99.90;;;;;;5075550;28;20115;-66
2022/09/19 05:08:14;;;;;;;13.07;3.38;;;12.50;99.90;;;;;;5057287;28;20044;-67
2022/09/19 05:10:41;;;;;;;9.13;2.22;;;12.50;99.90;;;;;;5075455;28;20072;-66
2022/09/19 05:13:07;;;;;;;8.90;2.30;;;12.50;99.90;;;;;;5057923;28;20053;-67
2022/09/19 05:15:32;;;;;;;10.10;2.30;;;12.50;99.90;;;;;;5075182;28;20052;-65
2022/09/19 05:17:58;;;;;;;9.95;2.40;;;12.50;99.90;;;;;;5075180;28;20051;-66
2022/09/19 05:20:26;;;;;;;9.77;2.17;;;12.50;99.90;;;;;;5075045;28;20054;-67
2022/09/19 05:22:58;;;;;;;14.93;1.77;;;12.40;99.90;;;;;;5074972;28;20059;-65
2022/09/19 05:25:28;;;;;;;15.48;2.20;;;12.50;99.90;;;;;;5075311;28;20052;-67
2022/09/19 05:27:56;;;;;;;12.38;2.40;;;12.60;99.90;;;;;;5057191;28;20544;-68
2022/09/19 05:30:24;;;;;;;8.77;2.33;;;12.60;99.90;;;;;;5074540;28;20105;-68
2022/09/19 05:32:50;;;;;;;12.30;2.47;;;12.60;99.90;;;;;;5074936;28;20114;-67
2022/09/19 05:35:18;;;;;;;16.65;2.70;;;12.70;99.90;;;;;;5075017;28;20136;-67
2022/09/19 05:37:46;;;;;;;10.55;2.38;;;12.70;99.90;;;;;;5074491;28;20044;-67
2022/09/19 05:40:12;;;;;;;16.83;3.92;;;12.70;99.90;;;;;;5075094;28;20055;-67
2022/09/19 05:42:42;;;;;;;9.48;2.38;;;12.70;99.90;;;;;;5074756;28;20041;-67
2022/09/19 05:45:10;;;;;;;10.95;2.67;;;12.60;99.90;;;;;;5074946;28;20045;-65
2022/09/19 05:47:37;;;;;;;11.07;2.50;;;12.70;99.90;;;;;;5074999;28;20047;-65
2022/09/19 05:50:03;;;;;;;18.20;3.15;;;12.70;99.90;;;;;;5074553;28;20052;-68
2022/09/19 05:55:12;;;;;;;12.40;2.70;;;12.80;99.90;;;;;;5074798;28;20354;-67
2022/09/19 05:57:38;;;;;;;11.45;3.47;;;12.80;99.90;;;;;;5057305;28;20040;-66
2022/09/19 06:00:06;;;;;;;10.65;2.67;;;12.90;99.90;;;;;;5074789;28;20044;-65
2022/09/19 06:02:32;;;;;;;12.95;3.65;;;12.90;99.90;;;;;;5074791;28;20379;-70
2022/09/19 06:04:58;;;;;;;19.27;2.95;;;12.90;99.90;;;;;;5074495;28;20048;-66
2022/09/19 06:07:23;;;;;;;12.77;2.83;;;12.90;99.90;;;;;;5074225;28;20045;-68
2022/09/19 06:09:52;;;;;;;12.98;2.50;;;13.10;99.90;;;;;;5073924;28;20052;-66
2022/09/19 06:12:18;;;;;;;13.48;2.22;;;13.00;99.90;;;;;;5074333;28;20052;-66
2022/09/19 06:14:44;;;;;;;9.40;2.20;;;13.00;99.90;;;;;;5056954;28;20059;-67
2022/09/19 06:17:11;;;;;;;9.88;2.97;;;13.00;99.90;;;;;;5076301;28;20045;-69
2022/09/19 06:19:37;;;;;;;10.80;2.95;;;13.00;99.90;;;;;;5078383;28;20541;-66
2022/09/19 06:22:04;;;;;;;12.52;2.85;;;13.00;99.90;;;;;;5078472;28;20106;-67
2022/09/19 06:24:30;;;;;;;7.50;2.00;;;13.00;99.90;;;;;;5078397;28;20117;-67
2022/09/19 06:26:56;;;;;;;10.63;2.03;;;12.90;99.90;;;;;;5078604;28;20436;-67
2022/09/19 06:29:22;;;;;;;14.00;2.63;;;13.00;99.90;;;;;;5078113;28;20067;-66
2022/09/19 06:31:48;;;;;;;8.10;1.98;;;13.00;99.90;;;;;;5078406;28;20047;-66
2022/09/19 06:34:15;;;;;;;8.00;2.22;;;13.00;99.90;;;;;;5077638;28;20048;-68
2022/09/19 06:36:43;;;;;;;11.65;3.22;;;12.90;99.90;;;;;;5078367;28;20044;-68
2022/09/19 06:39:08;;;;;;;18.20;3.03;;;12.90;99.90;;;;;;5077852;28;20465;-69
2022/09/19 06:41:35;;;;;;;16.30;4.05;;;12.90;99.90;;;;;;5077918;28;20040;-67
2022/09/19 06:44:02;;;;;;;10.65;2.53;;;12.90;99.90;;;;;;5078085;28;20044;-68
2022/09/19 06:46:27;;;;;;;10.45;2.50;;;12.80;99.90;;;;;;5078028;28;20041;-70
2022/09/19 06:48:53;;;;;;;11.63;3.17;;;12.70;99.90;;;;;;5077805;28;20420;-68
2022/09/19 06:51:19;;;;;;;12.38;2.40;;;12.70;99.90;;;;;;5059861;28;20055;-67
2022/09/19 06:53:47;;;;;;;9.95;2.53;;;12.80;99.90;;;;;;5077800;28;20059;-67
2022/09/19 06:56:13;;;;;;;10.88;2.17;;;12.80;99.90;;;;;;5078211;28;20060;-66
2022/09/19 06:58:38;;;;;;;20.08;3.28;;;12.80;99.90;;;;;;5077789;28;20048;-68
2022/09/19 07:01:04;;;;;;;17.45;2.72;;;12.80;99.90;;;;;;5078062;28;20458;-68
2022/09/19 07:03:30;;;;;;;15.55;3.17;;;12.80;99.90;;;;;;5078036;28;20070;-66
2022/09/19 07:05:59;;;;;;;12.30;2.58;;;12.90;99.90;;;;;;5077502;28;20048;-66
2022/09/19 07:08:25;;;;;;;12.23;3.15;;;12.90;99.90;;;;;;5077779;28;20063;-66
2022/09/19 07:10:50;;;;;;;11.57;2.40;;;12.90;99.90;;;;;;5060651;28;20446;-67
2022/09/19 07:13:16;;;;;;;11.10;2.58;;;12.90;99.90;;;;;;5077781;28;20048;-67
2022/09/19 07:15:42;;;;;;;10.50;2.03;;;13.00;99.90;;;;;;5077365;28;20084;-67
2022/09/19 07:18:10;;;;;;;13.25;3.08;;;13.00;99.90;;;;;;5056643;28;20048;-66
2022/09/19 07:20:37;;;;;;;10.63;2.92;;;13.10;99.90;;;;;;5057694;28;20064;-67
2022/09/19 07:23:05;;;;;;;9.00;2.65;;;13.20;99.90;;;;;;5057450;28;20469;-67
2022/09/19 07:25:32;;;;;;;11.10;2.70;;;13.30;99.90;;;;;;5040106;28;20456;-68
2022/09/19 07:27:59;;;;;;;10.60;2.53;;;13.50;99.90;;;;;;5056515;28;20138;-68
2022/09/19 07:30:25;;;;;;;14.75;3.00;;;13.50;99.90;;;;;;5058135;28;20107;-68
2022/09/19 07:33:01;;;;;;;19.33;3.30;;;13.50;99.90;;;;;;5077308;28;20052;-68
2022/09/19 07:35:28;;;;;;;14.82;2.90;;;13.60;99.90;;;;;;5077300;28;20056;-67
2022/09/19 07:37:55;;;;;;;16.45;3.42;;;13.60;99.90;;;;;;5074461;28;20044;-66
2022/09/19 07:40:22;;;;;;;15.10;2.33;;;13.70;99.90;;;;;;5076731;28;20044;-65
2022/09/19 07:42:48;;;;;;;11.05;2.95;;;13.70;99.90;;;;;;5076456;28;20055;-64
2022/09/19 07:45:14;;;;;;;13.80;2.70;;;13.80;99.90;;;;;;5077388;28;20347;-66
2022/09/19 07:47:44;;;;;;;13.32;2.90;;;13.80;99.90;;;;;;5075895;28;20048;-65
2022/09/19 07:50:16;;;;;;;16.13;3.05;;;13.80;99.90;;;;;;5076976;28;20052;-66
2022/09/19 07:52:46;;;;;;;16.17;3.20;;;13.90;99.90;;;;;;5076600;28;20052;-64
2022/09/19 07:55:15;;;;;;;20.08;3.95;;;13.80;99.90;;;;;;5076781;28;20068;-65
2022/09/19 07:57:55;;;;;;;18.83;3.58;;;13.90;99.90;;;;;;5076898;28;20531;-64
2022/09/19 08:00:26;;;;;;;21.15;4.75;;;14.00;99.90;;;;;;5076318;28;20111;-65
2022/09/19 08:03:00;;;;;;;15.30;2.78;;;14.10;99.90;;;;;;5076404;28;20055;-65
2022/09/19 08:05:28;;;;;;;12.20;3.40;;;14.00;99.90;;;;;;5076906;28;20040;-66
2022/09/19 08:07:55;;;;;;;14.70;3.38;;;14.10;99.90;;;;;;5076323;28;20462;-65
2022/09/19 08:10:21;;;;;;;15.95;3.50;;;14.20;99.90;;;;;;5076501;28;20375;-65
2022/09/19 08:12:48;;;;;;;22.77;3.80;;;14.10;99.90;;;;;;5076106;28;20036;-67
2022/09/19 08:15:15;;;;;;;16.63;3.22;;;14.20;99.90;;;;;;5059190;28;20053;-67
2022/09/19 08:17:43;;;;;;;14.18;3.08;;;14.20;99.90;;;;;;5059130;28;20106;-66
2022/09/19 08:20:08;;;;;;;19.38;3.38;;;14.30;99.90;;;;;;5076543;28;20398;-66
2022/09/19 08:22:34;;;;;;;17.52;3.58;;;14.20;99.90;;;;;;5075649;28;20052;-65
2022/09/19 08:25:00;;;;;;;18.65;3.47;;;14.20;99.90;;;;;;5076169;28;20049;-67
2022/09/19 08:27:26;;;;;;;17.55;4.00;;;14.30;99.90;;;;;;5076162;28;20047;-65
2022/09/19 08:29:52;;;;;;;18.65;3.78;;;14.30;99.90;;;;;;5075633;28;20048;-66
2022/09/19 08:32:17;;;;;;;16.65;3.88;;;14.30;99.90;;;;;;5058818;28;20064;-67
2022/09/19 08:34:43;;;;;;;16.75;4.25;;;14.30;99.90;;;;;;5075480;28;20041;-64
2022/09/19 08:37:08;;;;;;;19.92;3.70;;;14.40;99.90;;;;;;5058003;28;20058;-65
2022/09/19 08:39:34;;;;;;;20.45;4.40;;;14.50;99.90;;;;;;5075924;28;20354;-64
2022/09/19 08:42:18;;;;;;;16.65;3.05;;;14.60;99.90;;;;;;5075924;28;20051;-65
2022/09/19 08:45:27;;;;;;;16.27;3.20;;;14.80;99.90;;;;;;5075837;28;20052;-65
2022/09/19 08:47:55;;;;;;;16.20;4.60;;;14.80;99.90;;;;;;4974838;28;20059;-65
2022/09/19 08:50:30;;;;;;;13.77;3.85;;;14.90;99.90;;;;;;4974913;28;20424;-66
2022/09/19 08:53:00;;;;;;;12.93;3.78;;;14.60;99.90;;;;;;5021885;28;20068;-65
2022/09/19 08:55:28;;;;;;;14.43;3.25;;;14.30;99.90;;;;;;5038449;28;20450;-65
2022/09/19 08:57:58;;;;;;;15.27;3.63;;;13.90;99.90;;;;;;5055784;28;20178;-64
2022/09/19 09:00:25;;;;;;;12.10;3.03;;;13.60;99.90;;;;;;5055412;28;20045;-65
2022/09/19 09:03:01;;;;;;;15.82;3.50;;;13.70;99.90;;;;;;5055254;28;20053;-65
2022/09/19 09:05:44;;;;;;;17.65;3.45;;;13.60;99.90;;;;;;5061940;28;20175;-67
2022/09/19 09:08:19;;;;;;;14.00;3.85;;;13.60;99.90;;;;;;5075300;28;20059;-68
2022/09/19 09:11:05;;;;;;;19.48;3.83;;;13.70;99.90;;;;;;5075342;28;20048;-64
2022/09/19 09:13:46;;;;;;;21.25;4.40;;;13.90;99.90;;;;;;5075345;28;20059;-65
2022/09/19 09:16:45;;;;;;;16.88;3.22;;;13.90;99.90;;;;;;5075403;28;20191;-65
2022/09/19 09:19:20;;;;;;;17.88;3.38;;;14.00;99.90;;;;;;5075263;28;20128;-65
2022/09/19 09:22:19;;;;;;;17.85;3.38;;;14.10;99.90;;;;;;5074710;28;20063;-66
2022/09/19 09:25:11;;;;;;;18.88;3.65;;;14.10;99.90;;;;;;5074651;28;20489;-65
2022/09/19 09:28:07;;;;;;;20.60;4.75;;;14.20;99.90;;;;;;5057562;28;20045;-65
2022/09/19 09:30:36;;;;;;;21.45;5.53;;;14.40;99.90;;;;;;5053590;28;20431;-65
2022/09/19 09:33:21;;;;;;;21.05;4.03;;;14.50;99.90;;;;;;5074577;28;20461;-66
2022/09/19 09:35:52;;;;;;;19.92;4.10;;;14.60;99.90;;;;;;5056688;28;20048;-66
2022/09/19 09:38:24;;;;;;;21.05;4.15;;;14.70;99.90;;;;;;5074974;28;20481;-71
2022/09/19 09:44:00;;;;;;;24.08;3.88;;;14.70;99.90;;;;;;5075128;28;20097;-68
2022/09/19 09:46:53;;;;;;;25.80;4.45;;;14.80;99.90;;;;;;5074432;28;20471;-67
2022/09/19 09:49:29;;;;;;;20.80;3.90;;;14.80;99.90;;;;;;5057054;28;20087;-66
2022/09/19 09:52:25;;;;;;;14.30;3.47;;;14.90;99.90;;;;;;5074154;28;20048;-68
2022/09/19 09:57:56;;;;;;;26.55;4.28;;;15.20;99.90;;;;;;5074724;28;20048;-64
2022/09/19 10:03:38;;;;;;;16.38;3.28;;;15.20;99.90;;;;;;5054814;28;20080;-66
2022/09/19 10:06:25;;;;;;;19.33;3.67;;;15.20;99.90;;;;;;5073995;28;20080;-64
2022/09/19 10:09:18;;;;;;;22.23;4.20;;;15.20;99.90;;;;;;5074700;28;20131;-65
2022/09/19 10:12:07;;;;;;;15.90;3.40;;;15.30;99.90;;;;;;5074255;28;20036;-66
2022/09/19 10:14:36;;;;;;;16.92;3.50;;;15.40;99.90;;;;;;5074575;28;20413;-64
2022/09/19 10:17:04;;;;;;;21.73;3.75;;;15.40;99.90;;;;;;5074456;28;20044;-64
2022/09/19 10:19:50;;;;;;;23.35;3.45;;;15.40;99.90;;;;;;5074143;28;20048;-65
2022/09/19 10:22:17;;;;;;;17.27;3.30;;;15.40;99.90;;;;;;5074346;28;20094;-66
2022/09/19 10:25:00;;;;;;;15.15;4.05;;;15.40;99.90;;;;;;5074373;28;20058;-67
2022/09/19 10:27:33;;;;;;;16.67;3.70;;;15.30;99.90;;;;;;5074372;28;20459;-66
2022/09/19 10:30:06;;;;;;;17.05;4.28;;;14.70;99.90;;;;;;5074550;28;20060;-66
2022/09/19 10:32:37;;;;;;;19.52;3.83;;;14.40;99.90;;;;;;5073387;28;20061;-69
2022/09/19 10:35:28;;;;;;;14.45;3.83;;;13.90;99.90;;;;;;5074351;28;20052;-69
2022/09/19 10:38:17;;;;;;;16.80;3.40;;;13.60;99.90;;;;;;5074540;28;20056;-68
2022/09/19 10:41:00;;;;;;;14.93;3.63;;;13.40;99.90;;;;;;5074677;28;20066;-66
2022/09/19 10:43:33;;;;;;;16.15;3.25;;;13.10;99.90;;;;;;5074586;28;20052;-67
2022/09/19 10:46:05;;;;;;;14.25;3.85;;;12.80;99.90;;;;;;5074122;28;20141;-78
2022/09/19 10:48:33;;;;;;;19.02;3.63;;;12.60;99.90;;;;;;5056336;28;20055;-79
2022/09/19 10:50:59;;;;;;;19.38;4.60;;;12.30;99.90;;;;;;5074466;28;20037;-80
2022/09/19 10:53:33;;;;;;;13.45;3.55;;;12.40;99.90;;;;;;5056457;28;20532;-77
2022/09/19 10:56:07;;;;;;;19.95;3.30;;;12.30;99.90;;;;;;5073942;28;20040;-78
2022/09/19 10:58:39;;;;;;;18.30;4.57;;;12.30;99.90;;;;;;5074303;28;20505;-77
2022/09/19 11:01:22;;;;;;;18.60;3.50;;;12.40;99.90;;;;;;5056704;28;20048;-77
2022/09/19 11:03:59;;;;;;;17.73;3.42;;;12.50;99.90;;;;;;5076545;28;20040;-77
2022/09/19 11:06:24;;;;;;;18.63;4.25;;;12.70;99.90;;;;;;5078161;28;20101;-75
2022/09/19 11:08:53;;;;;;;19.27;4.28;;;12.80;99.90;;;;;;5077809;28;20447;-76
2022/09/19 11:11:37;;;;;;;17.83;3.58;;;13.10;99.90;;;;;;5077687;28;20127;-76
2022/09/19 11:14:10;;;;;;;21.98;3.88;;;13.20;99.90;;;;;;5077713;28;20113;-74
2022/09/19 11:17:36;;;;;;;15.80;3.72;;;13.40;99.90;;;;;;5077697;28;20131;-74
2022/09/19 11:20:18;;;;;;;20.88;4.65;;;13.40;99.90;;;;;;4957032;28;20058;-72
2022/09/19 11:23:13;;;;;;;18.98;4.10;;;13.70;99.90;;;;;;4941156;29;20418;-75
2022/09/19 11:26:10;;;;;;;20.33;3.70;;;13.80;99.90;;;;;;5033241;28;20467;-75
2022/09/19 11:29:17;;;;;;;16.58;3.90;;;13.90;99.90;;;;;;5057729;28;20049;-80
2022/09/19 11:31:49;;;;;;;12.82;3.33;;;13.90;99.90;;;;;;5057470;28;20068;-73
2022/09/19 11:34:38;;;;;;;19.73;4.75;;;14.00;99.90;;;;;;5072303;28;20106;-74
2022/09/19 11:37:14;;;;;;;17.63;3.72;;;14.10;99.90;;;;;;5077143;28;20052;-77
2022/09/19 11:40:00;;;;;;;23.25;3.80;;;14.20;99.90;;;;;;5058026;28;20580;-77
2022/09/19 11:43:06;;;;;;;20.25;4.18;;;14.10;99.90;;;;;;5081313;28;20045;-78
2022/09/19 11:46:01;;;;;;;21.05;4.47;;;14.20;99.90;;;;;;5077606;28;20124;-73
2022/09/19 11:49:04;;;;;;;13.70;3.72;;;14.20;99.90;;;;;;5078458;28;20033;-75
2022/09/19 11:51:56;;;;;;;15.55;4.03;;;14.40;99.90;;;;;;5077366;28;20151;-72
2022/09/19 11:54:34;;;;;;;13.95;3.00;;;14.50;99.90;;;;;;5078870;28;20052;-74
2022/09/19 11:57:13;;;;;;;16.35;3.92;;;14.60;99.90;;;;;;5078989;28;20084;-73
2022/09/19 12:00:00;;;;;;;20.33;3.53;;;14.60;99.90;;;;;;5077223;28;20093;-71
2022/09/19 12:03:07;;;;;;;22.13;4.35;;;14.70;99.90;;;;;;5076994;28;20066;-73
2022/09/19 12:05:53;;;;;;;17.45;3.47;;;14.80;99.90;;;;;;5073816;28;20044;-71
2022/09/19 12:08:45;;;;;;;15.82;3.03;;;14.80;99.90;;;;;;5035125;28;20055;-71
2022/09/19 12:11:20;;;;;;;13.77;3.17;;;14.90;99.90;;;;;;5076671;28;20371;-71
2022/09/19 12:13:53;;;;;;;17.58;3.75;;;15.10;99.90;;;;;;5075973;28;20045;-72
2022/09/19 12:16:24;;;;;;;11.95;2.63;;;15.20;99.90;;;;;;5076057;28;20383;-71
2022/09/19 12:21:52;;;;;;;12.52;2.53;;;15.40;99.90;;;;;;5062373;22;20065;-71
2022/09/19 12:27:20;;;;;;;11.87;2.73;;;15.20;99.90;;;;;;5011179;28;20368;-73
2022/09/19 12:29:59;;;;;;;11.27;2.28;;;15.10;99.90;;;;;;4999201;28;20133;-72
2022/09/19 12:32:40;;;;;;;13.07;2.85;;;15.20;99.90;;;;;;5012005;28;20115;-71
2022/09/19 12:35:44;;;;;;;14.60;2.83;;;15.30;99.90;;;;;;4996884;28;20121;-72
2022/09/19 12:38:36;;;;;;;17.65;3.55;;;15.70;99.90;;;;;;4996514;28;20133;-71
2022/09/19 12:41:36;;;;;;;19.27;3.80;;;15.90;99.90;;;;;;5003502;28;20124;-70
2022/09/19 12:44:32;;;;;;;13.18;4.25;;;16.00;99.90;;;;;;5016156;28;20360;-70
2022/09/19 12:47:20;;;;;;;23.08;3.45;;;16.20;99.90;;;;;;5016168;28;20137;-72
2022/09/19 12:50:13;;;;;;;15.18;3.10;;;16.40;99.90;;;;;;4999057;28;20041;-72
2022/09/19 12:52:44;;;;;;;13.63;4.13;;;16.50;99.90;;;;;;5016234;28;20045;-73
2022/09/19 12:55:16;;;;;;;14.85;3.78;;;16.40;99.90;;;;;;5015897;28;20050;-71
2022/09/19 12:58:03;;;;;;;13.10;3.60;;;16.50;99.90;;;;;;5015474;28;20468;-71
2022/09/19 13:00:34;;;;;;;15.27;2.95;;;16.60;99.90;;;;;;5015990;28;20050;-72
2022/09/19 13:03:35;;;;;;;16.20;2.78;;;16.40;99.90;;;;;;5016074;28;20080;-71
2022/09/19 13:06:11;;;;;;;19.05;3.25;;;16.50;99.90;;;;;;5015923;28;20396;-70
2022/09/19 13:08:44;;;;;;;16.35;2.92;;;16.30;99.90;;;;;;5015575;28;20046;-71
2022/09/19 13:11:25;;;;;;;12.77;3.05;;;16.20;99.90;;;;;;5015910;28;20448;-73
2022/09/19 13:14:16;;;;;;;20.17;4.70;;;16.20;99.90;;;;;;5015873;28;20337;-71
2022/09/19 13:25:18;;;;;;;11.02;3.17;;;16.60;99.90;;;;;;5015577;28;20057;-71
2022/09/19 13:27:46;;;;;;;12.13;3.33;;;16.70;99.90;;;;;;4981108;28;20057;-71
2022/09/19 13:30:48;;;;;;;14.15;3.05;;;16.90;99.90;;;;;;5015137;28;20046;-72
2022/09/19 13:33:34;;;;;;;8.55;2.33;;;17.00;99.90;;;;;;5015345;28;20053;-73
2022/09/19 13:36:11;;;;;;;7.88;2.20;;;17.10;99.90;;;;;;5015466;28;20097;-72
2022/09/19 13:38:45;;;;;;;12.15;2.60;;;17.30;99.90;;;;;;5015094;28;20065;-71